Terminal Aerodrome Forecast
Issued by NWS

Home | Current Version | Previous Version | Graphics & Text | Print | Product List | Glossary On
Versions: 1 2 3 4 5 6 7 8 9 10 11 12 13 14 15 16 17 18 19 20 21 22 23 24 25 26 27 28 29
000
FTUS43 KLSX 061338 AAA
TAFSUS
TAF AMD
KSUS 061338Z 0614/0712 33005KT P6SM OVC008
     FM061500 35007KT P6SM OVC015
     FM061700 31009KT P6SM SCT020
     FM062100 30011KT P6SM SCT200=

USA.gov is the U.S. government's official web portal to all federal, state and local government web resources and services.